Wednesday, February 21, 2018, 8:13 PM EST
Back to Local

KBLM, Belmar-farmingdale

Location: Farmingdale, NJ, United States Lat: 40.183
Local Time: 8:13 PM EST ( 1:13 GMT) Lon: -74.133
Time Zone: US/Eastern Elev: 157 ft

Show me the last for .
Show Decoded

2018-02-21 19:56 METAR KBLM 220056Z AUTO 21009KT 10SM CLR 21/16 A3030 RMK AO2 SLP263 T02110161 =
2018-02-21 17:56 METAR KBLM 212256Z AUTO 20007KT 10SM CLR 23/16 A3027 RMK AO2 SLP252 T02330161 =
2018-02-21 16:56 METAR KBLM 212156Z AUTO 22010G14KT 10SM CLR 24/16 A3025 RMK AO2 SLP247 T02440161
                 =
2018-02-21 15:56 METAR KBLM 212056Z AUTO 23012G17KT 10SM CLR 26/16 A3024 RMK AO2 SLP243 6////
                 T02560161 55005 =
2018-02-21 14:56 METAR KBLM 211956Z AUTO 23011KT 10SM CLR 26/16 A3024 RMK AO2 SLP242 T02560156 =
2018-02-21 13:56 METAR KBLM 211856Z AUTO 23012G24KT 10SM FEW037 26/16 A3024 RMK AO2 PK WND
                 21026/1825 SLP242 T02560156 =
2018-02-21 12:56 METAR KBLM 211756Z AUTO 22018G26KT 10SM FEW033 25/16 A3026 RMK AO2 PK WND
                 22027/1741 SLP249 6//// T02500161 10250 20161 =
2018-02-21 11:56 METAR KBLM 211656Z AUTO 21014KT 10SM FEW026 23/16 A3028 RMK AO2 SLP256 T02330161
                 =
2018-02-21 11:28 METAR KBLM 211628Z AUTO 22011G18KT 10SM FEW015 23/16 A3030 RMK AO2 =
2018-02-21 10:56 METAR KBLM 211556Z AUTO 24013G21KT 10SM OVC015 21/16 A3032 RMK AO2 SLP270
                 T02110161 =
2018-02-21 10:43 METAR KBLM 211543Z AUTO 23010G18KT 10SM OVC015 20/16 A3032 RMK AO2 =
2018-02-21 10:09 METAR KBLM 211509Z AUTO 24015G19KT 10SM OVC013 19/16 RMK AO2 $ =
2018-02-21 09:56 METAR KBLM 211456Z AUTO 23009KT 10SM BKN008 OVC013 18/16 RMK AO2 CIG 007V012
                 SLPNO T01830161 $ =
2018-02-21 08:56 METAR KBLM 211356Z AUTO 20009KT 10SM OVC006 17/15 A3034 RMK AO2 SLP277 T01670150
                 =
2018-02-21 08:36 METAR KBLM 211336Z AUTO 21008KT 10SM OVC006 16/15 A3033 RMK AO2 =
2018-02-21 07:56 METAR KBLM 211256Z AUTO 19008KT 9SM OVC004 16/15 A3033 RMK AO2 SLP276 T01610150
                 =
2018-02-21 06:56 METAR KBLM 211156Z AUTO 21010KT 6SM BR OVC004 16/15 A3033 RMK AO2 SLP274 6////
                 7//// T01610150 10161 20150 53004 =
2018-02-21 06:18 METAR KBLM 211118Z AUTO 20006KT 6SM BR OVC004 16/15 A3033 RMK AO2 CIG 003V008 =
2018-02-21 05:56 METAR KBLM 211056Z AUTO 21010KT 7SM BKN006 16/15 A3032 RMK AO2 SLP271 T01560150
                 =
2018-02-21 05:43 METAR KBLM 211043Z AUTO 21008KT 9SM FEW006 16/15 A3032 RMK AO2 =
2018-02-21 04:56 METAR KBLM 210956Z AUTO 21009KT 10SM CLR 16/15 A3032 RMK AO2 SLP270 T01610150 =
2018-02-21 03:56 METAR KBLM 210856Z AUTO 20008KT 10SM CLR 15/14 A3032 RMK AO2 SLP270 6////
                 T01500139 56012 =
2018-02-21 02:56 METAR KBLM 210756Z AUTO 20010KT 10SM CLR 16/14 A3032 RMK AO2 SLP272 T01610144 =
2018-02-21 01:56 METAR KBLM 210656Z AUTO 19008KT 10SM CLR 16/14 A3034 RMK AO2 SLP277 T01560144 =
2018-02-21 01:20 METAR KBLM 210620Z AUTO 19007KT 10SM FEW007 SCT044 15/14 A3035 RMK AO2 =
2018-02-21 00:56 METAR KBLM 210556Z AUTO 20007KT 10SM CLR 15/14 A3035 RMK AO2 SLP283 6////
                 T01500139 10200 20144 50002 =
2018-02-21 00:28 METAR KBLM 210528Z AUTO 20006KT 10SM FEW005 15/14 A3036 RMK AO2 =
2018-02-20 23:56 METAR KBLM 210456Z AUTO 19006KT 10SM CLR 15/14 A3036 RMK AO2 SLP286 T01500139
                 402440111 =
2018-02-20 22:56 METAR KBLM 210356Z AUTO 20009KT 10SM CLR 16/14 A3035 RMK AO2 SLP283 T01560139 =
2018-02-20 21:56 METAR KBLM 210256Z AUTO 19006KT 10SM CLR 16/14 A3035 RMK AO2 SLP281 T01610139
                 51006 =
2018-02-20 20:56 METAR KBLM 210156Z AUTO 20006KT 10SM CLR 18/14 A3035 RMK AO2 SLP281 T01780139 =

Support USWX by starting your Amazon purchase here.